createdAt,value
2018-11-07T00:01:01.632Z,1001.1
2018-11-07T00:02:03.660Z,1001.1
2018-11-07T00:03:05.682Z,1001.1
2018-11-07T00:04:07.694Z,1001.1
2018-11-07T00:05:10.019Z,1001.1
2018-11-07T00:06:12.325Z,1001.1
2018-11-07T00:07:14.343Z,1001
2018-11-07T00:08:16.530Z,1001
2018-11-07T00:09:18.897Z,1001
2018-11-07T00:10:20.921Z,1001
2018-11-07T00:11:22.933Z,1001
2018-11-07T00:12:24.964Z,1001.1
2018-11-07T00:13:27.264Z,1001.1
2018-11-07T00:14:29.684Z,1001.1
2018-11-07T00:15:31.706Z,1001.1
2018-11-07T00:16:34.012Z,1001.1
2018-11-07T00:17:36.320Z,1001.1
2018-11-07T00:18:38.332Z,1001.2
2018-11-07T00:19:40.364Z,1001.1
2018-11-07T00:20:42.664Z,1001.1
2018-11-07T00:21:45.082Z,1001.1
2018-11-07T00:22:47.112Z,1001.1
2018-11-07T00:23:49.137Z,1001.1
2018-11-07T00:24:51.155Z,1001.2
2018-11-07T00:25:53.183Z,1001.1
2018-11-07T00:26:55.210Z,1001.1
2018-11-07T00:27:57.223Z,1001.2
2018-11-07T00:28:59.536Z,1001.1
2018-11-07T00:30:02.029Z,1001.2
2018-11-07T00:31:03.961Z,1001.2
2018-11-07T00:32:06.296Z,1001.2
2018-11-07T00:33:08.318Z,1001.2
2018-11-07T00:34:10.337Z,1001.2
2018-11-07T00:35:12.492Z,1001.2
2018-11-07T00:36:14.861Z,1001.2
2018-11-07T00:37:17.257Z,1001.3
2018-11-07T00:38:19.668Z,1001.2
2018-11-07T00:39:21.697Z,1001.2
2018-11-07T00:40:23.717Z,1001.2
2018-11-07T00:41:25.747Z,1001.2
2018-11-07T00:42:28.244Z,1001.2
2018-11-07T00:43:30.175Z,1001.2
2018-11-07T00:44:32.497Z,1001.2
2018-11-07T00:45:34.512Z,1001.2
2018-11-07T00:46:36.536Z,1001.1
2018-11-07T00:47:38.552Z,1001.1
2018-11-07T00:48:40.881Z,1001.1
2018-11-07T00:49:42.896Z,1001.2
2018-11-07T00:50:44.919Z,1001.2
2018-11-07T00:51:47.538Z,1001.2
2018-11-07T00:52:49.548Z,1001.2
2018-11-07T00:53:51.581Z,1001.2
2018-11-07T00:54:53.600Z,1001.2
2018-11-07T00:55:56.013Z,1001.2
2018-11-07T00:56:58.034Z,1001.2
2018-11-07T00:58:00.140Z,1001.2
2018-11-07T00:59:02.080Z,1001.2
2018-11-07T01:00:04.103Z,1001.2
2018-11-07T01:01:06.129Z,1001.2
2018-11-07T01:02:08.141Z,1001.2
2018-11-07T01:03:10.160Z,1001.2
2018-11-07T01:04:12.473Z,1001.2
2018-11-07T01:05:14.493Z,1001.1
2018-11-07T01:06:16.831Z,1001.1
2018-11-07T01:07:18.860Z,1001
2018-11-07T01:08:20.875Z,1001
2018-11-07T01:09:22.909Z,1001.1
2018-11-07T01:10:25.296Z,1001.1
2018-11-07T01:11:27.318Z,1001
2018-11-07T01:12:29.335Z,1001
2018-11-07T01:13:31.373Z,1001
2018-11-07T01:14:33.739Z,1001
2018-11-07T01:15:35.800Z,1001
2018-11-07T01:16:37.913Z,1001
2018-11-07T01:17:40.499Z,1001.1
2018-11-07T01:18:42.916Z,1001
2018-11-07T01:19:44.944Z,1001.1
2018-11-07T01:20:47.259Z,1001.1
2018-11-07T01:21:49.571Z,1001.1
2018-11-07T01:22:51.598Z,1001
2018-11-07T01:23:53.622Z,1001
2018-11-07T01:24:55.639Z,1001
2018-11-07T01:25:57.964Z,1001
2018-11-07T01:26:59.997Z,1001
2018-11-07T01:28:02.065Z,1001
2018-11-07T01:29:04.416Z,1001
2018-11-07T01:30:06.431Z,1001
2018-11-07T01:31:08.457Z,1001
2018-11-07T01:32:10.860Z,1001.1
2018-11-07T01:33:12.878Z,1001.2
2018-11-07T01:34:14.907Z,1001.2
2018-11-07T01:35:16.916Z,1001.2
2018-11-07T01:36:18.938Z,1001.3
2018-11-07T01:37:20.961Z,1001.2
2018-11-07T01:38:23.277Z,1001.1
2018-11-07T01:39:25.579Z,1001.1
2018-11-07T01:40:27.892Z,1001
2018-11-07T01:41:30.594Z,1001
2018-11-07T01:42:32.617Z,1001
2018-11-07T01:43:34.647Z,1001
2018-11-07T01:44:36.670Z,1001
2018-11-07T01:45:38.684Z,1001.1
2018-11-07T01:46:40.708Z,1001.1
2018-11-07T01:47:43.008Z,1001.1
2018-11-07T01:48:45.026Z,1001
2018-11-07T01:49:47.051Z,1001
2018-11-07T01:50:49.349Z,1001
2018-11-07T01:51:51.384Z,1000.9
2018-11-07T01:52:53.395Z,1000.9
2018-11-07T01:53:55.473Z,1000.9
2018-11-07T01:54:57.775Z,1000.8
2018-11-07T01:55:59.801Z,1000.9
2018-11-07T01:57:01.828Z,1000.8
2018-11-07T01:58:03.839Z,1000.8
2018-11-07T01:59:05.869Z,1000.8
2018-11-07T02:00:08.170Z,1000.8
2018-11-07T02:01:10.188Z,1000.8
2018-11-07T02:02:12.205Z,1000.8
2018-11-07T02:03:14.230Z,1000.8
2018-11-07T02:04:16.247Z,1000.8
2018-11-07T02:05:18.274Z,1000.8
2018-11-07T02:06:20.311Z,1000.7
2018-11-07T02:07:22.307Z,1000.7
2018-11-07T02:08:24.335Z,1000.8
2018-11-07T02:09:26.358Z,1000.7
2018-11-07T02:10:28.375Z,1000.7
2018-11-07T02:11:30.398Z,1000.8
2018-11-07T02:12:32.430Z,1000.7
2018-11-07T02:13:34.446Z,1000.7
2018-11-07T02:14:36.474Z,1000.8
2018-11-07T02:15:38.778Z,1000.8
2018-11-07T02:16:41.076Z,1000.7
2018-11-07T02:17:43.397Z,1000.7
2018-11-07T02:18:45.422Z,1000.7
2018-11-07T02:19:47.436Z,1000.7
2018-11-07T02:20:49.460Z,1000.7
2018-11-07T02:21:51.493Z,1000.7
2018-11-07T02:22:53.499Z,1000.6
2018-11-07T02:23:55.531Z,1000.6
2018-11-07T02:24:57.836Z,1000.6
2018-11-07T02:25:59.858Z,1000.6
2018-11-07T02:27:02.827Z,1000.6
2018-11-07T02:28:05.240Z,1000.6
2018-11-07T02:29:07.640Z,1000.5
2018-11-07T02:30:10.368Z,1000.5
2018-11-07T02:31:12.778Z,1000.5
2018-11-07T02:32:15.468Z,1000.5
2018-11-07T02:33:17.497Z,1000.5
2018-11-07T02:34:19.518Z,1000.4
2018-11-07T02:35:21.841Z,1000.4
2018-11-07T02:36:24.242Z,1000.5
2018-11-07T02:37:26.273Z,1000.4
2018-11-07T02:38:28.998Z,1000.4
2018-11-07T02:39:31.702Z,1000.4
2018-11-07T02:40:33.719Z,1000.4
2018-11-07T02:41:36.161Z,1000.4
2018-11-07T02:42:38.141Z,1000.4
2018-11-07T02:43:40.159Z,1000.4
2018-11-07T02:44:42.565Z,1000.3
2018-11-07T02:45:45.283Z,1000.4
2018-11-07T02:46:47.580Z,1000.4
2018-11-07T02:47:49.607Z,1000.4
2018-11-07T02:48:51.928Z,1000.4
2018-11-07T02:49:53.938Z,1000.4
2018-11-07T02:50:56.919Z,1000.4
2018-11-07T02:51:59.526Z,1000.4
2018-11-07T02:53:01.543Z,1000.3
2018-11-07T02:54:03.954Z,1000.3
2018-11-07T02:55:06.316Z,1000.3
2018-11-07T02:56:08.282Z,1000.3
2018-11-07T02:57:10.310Z,1000.3
2018-11-07T02:58:12.345Z,1000.2
2018-11-07T02:59:14.654Z,1000.2
2018-11-07T03:00:16.973Z,1000.2
2018-11-07T03:01:19.460Z,1000.3
2018-11-07T03:02:21.411Z,1000.3
2018-11-07T03:03:23.430Z,1000.3
2018-11-07T03:04:25.459Z,1000.3
2018-11-07T03:05:28.320Z,1000.3
2018-11-07T03:06:30.350Z,1000.3
2018-11-07T03:07:32.371Z,1000.3
2018-11-07T03:08:34.711Z,1000.3
2018-11-07T03:09:36.735Z,1000.2
2018-11-07T03:10:38.877Z,1000.2
2018-11-07T03:11:41.659Z,1000.2
2018-11-07T03:12:43.954Z,1000.2
2018-11-07T03:13:46.369Z,1000.2
2018-11-07T03:14:48.768Z,1000.3
2018-11-07T03:15:51.078Z,1000.2
2018-11-07T03:16:53.106Z,1000.2
2018-11-07T03:17:55.125Z,1000.2
2018-11-07T03:18:57.142Z,1000.2
2018-11-07T03:19:59.743Z,1000.3
2018-11-07T03:21:01.770Z,1000.3
2018-11-07T03:22:04.074Z,1000.2
2018-11-07T03:23:06.106Z,1000.3
2018-11-07T03:24:08.124Z,1000.2
2018-11-07T03:25:10.152Z,1000.2
2018-11-07T03:26:12.172Z,1000.3
2018-11-07T03:27:14.765Z,1000.3
2018-11-07T03:28:17.165Z,1000.2
2018-11-07T03:29:19.196Z,1000.2
2018-11-07T03:30:21.493Z,1000.2
2018-11-07T03:31:24.111Z,1000.2
2018-11-07T03:32:26.712Z,1000.3
2018-11-07T03:33:28.749Z,1000.3
2018-11-07T03:34:30.766Z,1000.2
2018-11-07T03:35:33.184Z,1000.2
2018-11-07T03:36:35.511Z,1000.2
2018-11-07T03:37:37.527Z,1000.2
2018-11-07T03:38:39.851Z,1000.2
2018-11-07T03:39:41.943Z,1000.3
2018-11-07T03:40:44.334Z,1000.3
2018-11-07T03:41:46.641Z,1000.3
2018-11-07T03:42:48.672Z,1000.3
2018-11-07T03:43:50.684Z,1000.3
2018-11-07T03:44:52.708Z,1000.3
2018-11-07T03:45:55.128Z,1000.3
2018-11-07T03:46:57.445Z,1000.3
2018-11-07T03:47:59.475Z,1000.3
2018-11-07T03:49:01.502Z,1000.2
2018-11-07T03:50:03.800Z,1000.2
2018-11-07T03:51:06.103Z,1000.2
2018-11-07T03:52:08.124Z,1000.2
2018-11-07T03:53:10.204Z,1000.1
2018-11-07T03:54:12.172Z,1000.1
2018-11-07T03:55:14.470Z,1000.2
2018-11-07T03:56:16.481Z,1000.2
2018-11-07T03:57:19.075Z,1000.2
2018-11-07T03:58:21.100Z,1000.3
2018-11-07T03:59:23.409Z,1000.2
2018-11-07T04:00:25.428Z,1000.2
2018-11-07T04:01:27.728Z,1000.2
2018-11-07T04:02:29.755Z,1000.1
2018-11-07T04:03:31.766Z,1000.2
2018-11-07T04:04:34.253Z,1000.2
2018-11-07T04:05:36.492Z,1000.2
2018-11-07T04:06:38.808Z,1000.2
2018-11-07T04:07:41.103Z,1000.2
2018-11-07T04:08:43.130Z,1000.3
2018-11-07T04:09:45.434Z,1000.3
2018-11-07T04:10:47.449Z,1000.4
2018-11-07T04:11:49.481Z,1000.3
2018-11-07T04:12:51.488Z,1000.3
2018-11-07T04:13:53.808Z,1000.3
2018-11-07T04:14:55.820Z,1000.4
2018-11-07T04:15:57.844Z,1000.4
2018-11-07T04:17:00.545Z,1000.4
2018-11-07T04:18:02.863Z,1000.3
2018-11-07T04:19:05.195Z,1000.3
2018-11-07T04:20:07.200Z,1000.3
2018-11-07T04:21:09.902Z,1000.4
2018-11-07T04:22:11.922Z,1000.4
2018-11-07T04:23:13.940Z,1000.3
2018-11-07T04:24:16.342Z,1000.3
2018-11-07T04:25:18.758Z,1000.3
2018-11-07T04:26:20.771Z,1000.3
2018-11-07T04:27:22.797Z,1000.3
2018-11-07T04:28:24.820Z,1000.4
2018-11-07T04:29:27.496Z,1000.4
2018-11-07T04:30:29.522Z,1000.4
2018-11-07T04:31:31.837Z,1000.4
2018-11-07T04:32:34.420Z,1000.4
2018-11-07T04:33:36.729Z,1000.4
2018-11-07T04:34:39.061Z,1000.4
2018-11-07T04:35:41.089Z,1000.4
2018-11-07T04:36:43.390Z,1000.4
2018-11-07T04:37:45.425Z,1000.4
2018-11-07T04:38:47.441Z,1000.4
2018-11-07T04:39:49.473Z,1000.4
2018-11-07T04:40:51.768Z,1000.4
2018-11-07T04:41:53.796Z,1000.4
2018-11-07T04:42:56.134Z,1000.4
2018-11-07T04:43:58.154Z,1000.5
2018-11-07T04:45:00.493Z,1000.5
2018-11-07T04:46:02.795Z,1000.4
2018-11-07T04:47:05.097Z,1000.4
2018-11-07T04:48:07.403Z,1000.4
2018-11-07T04:49:09.430Z,1000.3
2018-11-07T04:50:11.445Z,1000.5
2018-11-07T04:51:13.471Z,1000.5
2018-11-07T04:52:16.203Z,1000.4
2018-11-07T04:53:18.216Z,1000.4
2018-11-07T04:54:20.832Z,1000.4
2018-11-07T04:55:23.237Z,1000.4
2018-11-07T04:56:25.249Z,1000.4
2018-11-07T04:57:27.265Z,1000.4
2018-11-07T04:58:29.294Z,1000.4
2018-11-07T04:59:31.310Z,1000.4
2018-11-07T05:00:33.337Z,1000.4
2018-11-07T05:01:35.360Z,1000.4
2018-11-07T05:02:37.365Z,1000.5
2018-11-07T05:03:39.386Z,1000.5
2018-11-07T05:04:41.415Z,1000.4
2018-11-07T05:05:43.431Z,1000.4
2018-11-07T05:06:45.457Z,1000.5
2018-11-07T05:07:47.536Z,1000.4
2018-11-07T05:08:50.037Z,1000.5
2018-11-07T05:09:51.884Z,1000.5
2018-11-07T05:10:53.898Z,1000.5
2018-11-07T05:11:55.918Z,1000.5
2018-11-07T05:12:58.319Z,1000.5
2018-11-07T05:14:00.339Z,1000.5
2018-11-07T05:15:02.367Z,1000.5
2018-11-07T05:16:04.675Z,1000.6
2018-11-07T05:17:06.992Z,1000.5
2018-11-07T05:18:09.023Z,1000.6
2018-11-07T05:19:11.031Z,1000.5
2018-11-07T05:20:13.050Z,1000.5
2018-11-07T05:21:15.061Z,1000.6
2018-11-07T05:22:17.087Z,1000.6
2018-11-07T05:23:19.099Z,1000.6
2018-11-07T05:24:21.125Z,1000.6
2018-11-07T05:25:23.542Z,1000.6
2018-11-07T05:26:26.344Z,1000.6
2018-11-07T05:27:28.255Z,1000.5
2018-11-07T05:28:30.274Z,1000.5
2018-11-07T05:29:32.570Z,1000.5
2018-11-07T05:30:34.591Z,1000.6
2018-11-07T05:31:36.619Z,1000.6
2018-11-07T05:32:39.022Z,1000.6
2018-11-07T05:33:41.044Z,1000.6
2018-11-07T05:34:43.068Z,1000.5
2018-11-07T05:35:45.072Z,1000.6
2018-11-07T05:36:47.092Z,1000.6
2018-11-07T05:37:49.116Z,1000.5
2018-11-07T05:38:51.145Z,1000.5
2018-11-07T05:39:53.159Z,1000.5
2018-11-07T05:40:55.205Z,1000.5
2018-11-07T05:41:57.206Z,1000.5
2018-11-07T05:42:59.238Z,1000.5
2018-11-07T05:44:01.250Z,1000.5
2018-11-07T05:45:03.273Z,1000.5
2018-11-07T05:46:05.285Z,1000.5
2018-11-07T05:47:07.309Z,1000.5
2018-11-07T05:48:09.325Z,1000.5
2018-11-07T05:49:11.408Z,1000.5
2018-11-07T05:50:13.950Z,1000.5
2018-11-07T05:51:15.953Z,1000.5
2018-11-07T05:52:17.981Z,1000.5
2018-11-07T05:53:20.004Z,1000.5
2018-11-07T05:54:22.029Z,1000.5
2018-11-07T05:55:24.041Z,1000.5
2018-11-07T05:56:26.063Z,1000.5
2018-11-07T05:57:28.077Z,1000.4
2018-11-07T05:58:30.090Z,1000.5
2018-11-07T05:59:32.119Z,1000.5
2018-11-07T06:00:34.127Z,1000.4
2018-11-07T06:01:36.146Z,1000.4
2018-11-07T06:02:38.167Z,1000.4
2018-11-07T06:03:40.570Z,1000.4
2018-11-07T06:04:42.888Z,1000.4
2018-11-07T06:05:44.912Z,1000.5
2018-11-07T06:06:46.927Z,1000.5
2018-11-07T06:07:49.330Z,1000.5
2018-11-07T06:08:51.645Z,1000.5
2018-11-07T06:09:54.050Z,1000.5
2018-11-07T06:10:56.062Z,1000.6
2018-11-07T06:11:58.471Z,1000.6
2018-11-07T06:13:00.484Z,1000.6
2018-11-07T06:14:02.778Z,1000.6
2018-11-07T06:15:04.801Z,1000.6
2018-11-07T06:16:06.881Z,1000.7
2018-11-07T06:17:09.128Z,1000.7
2018-11-07T06:18:11.430Z,1000.7
2018-11-07T06:19:13.456Z,1000.7
2018-11-07T06:20:15.477Z,1000.6
2018-11-07T06:21:18.165Z,1000.7
2018-11-07T06:22:20.570Z,1000.7
2018-11-07T06:23:22.587Z,1000.7
2018-11-07T06:24:24.682Z,1000.7
2018-11-07T06:25:26.629Z,1000.7
2018-11-07T06:26:28.651Z,1000.7
2018-11-07T06:27:30.665Z,1000.8
2018-11-07T06:28:32.686Z,1000.8
2018-11-07T06:29:34.998Z,1000.7
2018-11-07T06:30:37.003Z,1000.8
2018-11-07T06:31:39.020Z,1000.8
2018-11-07T06:32:41.045Z,1000.8
2018-11-07T06:33:43.719Z,1000.8
2018-11-07T06:34:45.737Z,1000.8
2018-11-07T06:35:48.045Z,1000.8
2018-11-07T06:36:50.730Z,1000.8
2018-11-07T06:37:53.033Z,1000.8
2018-11-07T06:38:55.619Z,1000.8
2018-11-07T06:39:57.635Z,1000.8
2018-11-07T06:40:59.655Z,1000.9
2018-11-07T06:42:01.687Z,1000.9
2018-11-07T06:43:03.993Z,1000.9
2018-11-07T06:44:06.572Z,1000.9
2018-11-07T06:45:08.599Z,1000.9
2018-11-07T06:46:10.621Z,1000.9
2018-11-07T06:47:13.222Z,1001
2018-11-07T06:48:15.259Z,1001
2018-11-07T06:49:17.255Z,1001
2018-11-07T06:50:19.279Z,1000.9
2018-11-07T06:51:21.301Z,1000.9
2018-11-07T06:52:23.324Z,1001
2018-11-07T06:53:25.341Z,1001
2018-11-07T06:54:27.368Z,1001
2018-11-07T06:55:29.666Z,1001
2018-11-07T06:56:32.070Z,1001
2018-11-07T06:57:34.101Z,1001
2018-11-07T06:58:36.110Z,1000.9
2018-11-07T06:59:38.128Z,1001
2018-11-07T07:00:40.139Z,1000.9
2018-11-07T07:01:42.161Z,1001
2018-11-07T07:02:44.179Z,1001
2018-11-07T07:03:47.164Z,1001
2018-11-07T07:04:49.471Z,1001
2018-11-07T07:05:51.480Z,1001
2018-11-07T07:06:53.504Z,1001
2018-11-07T07:07:55.523Z,1001
2018-11-07T07:08:57.553Z,1001
2018-11-07T07:09:59.869Z,1001
2018-11-07T07:11:01.883Z,1001.1
2018-11-07T07:12:04.196Z,1001.1
2018-11-07T07:13:06.210Z,1001.1
2018-11-07T07:14:08.794Z,1001.1
2018-11-07T07:15:11.111Z,1001.1
2018-11-07T07:16:13.136Z,1001.2
2018-11-07T07:17:15.150Z,1001.1
2018-11-07T07:18:17.265Z,1001.1
2018-11-07T07:19:19.193Z,1001.1
2018-11-07T07:20:21.616Z,1001
2018-11-07T07:21:23.640Z,1001
2018-11-07T07:22:25.931Z,1001.1
2018-11-07T07:23:28.342Z,1001.1
2018-11-07T07:24:30.359Z,1001.1
2018-11-07T07:25:32.770Z,1001.1
2018-11-07T07:26:34.775Z,1001
2018-11-07T07:27:36.804Z,1001
2018-11-07T07:28:38.828Z,1001.1
2018-11-07T07:29:40.845Z,1001
2018-11-07T07:30:42.872Z,1001.1
2018-11-07T07:31:44.883Z,1001
2018-11-07T07:32:47.178Z,1001
2018-11-07T07:33:49.623Z,1001
2018-11-07T07:34:52.003Z,1001
2018-11-07T07:35:54.020Z,1001.1
2018-11-07T07:36:56.045Z,1001.1
2018-11-07T07:37:58.071Z,1001.1
2018-11-07T07:39:00.080Z,1001
2018-11-07T07:40:03.115Z,1001
2018-11-07T07:41:05.135Z,1001
2018-11-07T07:42:07.152Z,1001
2018-11-07T07:43:09.172Z,1000.9
2018-11-07T07:44:11.198Z,1000.9
2018-11-07T07:45:13.218Z,1000.9
2018-11-07T07:46:15.916Z,1001
2018-11-07T07:47:17.931Z,1001.1
2018-11-07T07:48:19.959Z,1001.2
2018-11-07T07:49:22.058Z,1001.3
2018-11-07T07:50:24.488Z,1001.3
2018-11-07T07:51:26.797Z,1001.3
2018-11-07T07:52:28.820Z,1001.3
2018-11-07T07:53:31.128Z,1001.3
2018-11-07T07:54:33.534Z,1001.3
2018-11-07T07:55:35.540Z,1001.3
2018-11-07T07:56:37.567Z,1001.2
2018-11-07T07:57:39.876Z,1001.3
2018-11-07T07:58:42.295Z,1001.3
2018-11-07T07:59:44.313Z,1001.3
2018-11-07T08:00:46.338Z,1001.3
2018-11-07T08:01:48.718Z,1001.3
2018-11-07T08:02:51.119Z,1001.3
2018-11-07T08:03:53.456Z,1001.3
2018-11-07T08:04:55.468Z,1001.3
2018-11-07T08:05:58.053Z,1001.3
2018-11-07T08:07:00.414Z,1001.3
2018-11-07T08:08:02.398Z,1001.3
2018-11-07T08:09:04.701Z,1001.3
2018-11-07T08:10:07.108Z,1001.3
2018-11-07T08:11:09.138Z,1001.3
2018-11-07T08:12:11.147Z,1001.4
2018-11-07T08:13:13.176Z,1001.3
2018-11-07T08:14:15.192Z,1001.3
2018-11-07T08:15:17.213Z,1001.3
2018-11-07T08:16:19.230Z,1001.3
2018-11-07T08:17:21.251Z,1001.3
2018-11-07T08:18:23.264Z,1001.4
2018-11-07T08:19:25.598Z,1001.3
2018-11-07T08:20:27.919Z,1001.4
2018-11-07T08:21:29.929Z,1001.4
2018-11-07T08:22:31.945Z,1001.4
2018-11-07T08:23:33.967Z,1001.4
2018-11-07T08:24:35.981Z,1001.4
2018-11-07T08:25:38.006Z,1001.4
2018-11-07T08:26:40.032Z,1001.4
2018-11-07T08:27:42.325Z,1001.4
2018-11-07T08:28:44.643Z,1001.4
2018-11-07T08:29:46.662Z,1001.3
2018-11-07T08:30:48.740Z,1001.4
2018-11-07T08:31:51.310Z,1001.4
2018-11-07T08:32:53.347Z,1001.4
2018-11-07T08:33:55.750Z,1001.4
2018-11-07T08:34:58.460Z,1001.4
2018-11-07T08:36:00.875Z,1001.4
2018-11-07T08:37:03.174Z,1001.5
2018-11-07T08:38:05.688Z,1001.5
2018-11-07T08:39:07.998Z,1001.5
2018-11-07T08:40:10.026Z,1001.4
2018-11-07T08:41:12.323Z,1001.5
2018-11-07T08:42:14.422Z,1001.5
2018-11-07T08:43:16.790Z,1001.5
2018-11-07T08:44:18.805Z,1001.5
2018-11-07T08:45:20.841Z,1001.5
2018-11-07T08:46:22.854Z,1001.5
2018-11-07T08:47:24.876Z,1001.5
2018-11-07T08:48:26.908Z,1001.6
2018-11-07T08:49:29.225Z,1001.7
2018-11-07T08:50:31.248Z,1001.7
2018-11-07T08:51:33.660Z,1001.7
2018-11-07T08:52:35.708Z,1001.7
2018-11-07T08:53:38.017Z,1001.8
2018-11-07T08:54:40.051Z,1001.8
2018-11-07T08:55:42.377Z,1001.8
2018-11-07T08:56:44.696Z,1001.8
2018-11-07T08:57:46.738Z,1001.8
2018-11-07T08:58:48.744Z,1001.7
2018-11-07T08:59:50.760Z,1001.7
2018-11-07T09:00:53.077Z,1001.7
2018-11-07T09:01:55.128Z,1001.7
2018-11-07T09:02:57.463Z,1001.7
2018-11-07T09:03:59.880Z,1001.7
2018-11-07T09:05:01.895Z,1001.7
2018-11-07T09:06:04.309Z,1001.8
2018-11-07T09:07:06.652Z,1001.8
2018-11-07T09:08:08.674Z,1001.8
2018-11-07T09:09:10.704Z,1001.8
2018-11-07T09:10:12.717Z,1001.8
2018-11-07T09:11:14.757Z,1001.8
2018-11-07T09:12:17.142Z,1001.8
2018-11-07T09:13:19.089Z,1001.9
2018-11-07T09:14:21.110Z,1001.9
2018-11-07T09:15:23.823Z,1001.9
2018-11-07T09:16:25.840Z,1001.9
2018-11-07T09:17:27.855Z,1001.9
2018-11-07T09:18:29.900Z,1001.9
2018-11-07T09:19:31.932Z,1002
2018-11-07T09:20:33.952Z,1002
2018-11-07T09:21:35.981Z,1002
2018-11-07T09:22:38.386Z,1002
2018-11-07T09:23:40.408Z,1002
2018-11-07T09:24:42.716Z,1002
2018-11-07T09:25:44.736Z,1002
2018-11-07T09:26:46.760Z,1002.1
2018-11-07T09:27:48.790Z,1002
2018-11-07T09:28:50.811Z,1002
2018-11-07T09:29:52.834Z,1002
2018-11-07T09:30:55.240Z,1002
2018-11-07T09:31:57.256Z,1002
2018-11-07T09:32:59.275Z,1002
2018-11-07T09:34:01.301Z,1002
2018-11-07T09:35:03.900Z,1002
2018-11-07T09:36:06.231Z,1001.9
2018-11-07T09:37:08.253Z,1002
2018-11-07T09:38:10.281Z,1002
2018-11-07T09:39:12.305Z,1001.9
2018-11-07T09:40:14.321Z,1001.8
2018-11-07T09:41:16.346Z,1001.8
2018-11-07T09:42:18.374Z,1001.8
2018-11-07T09:43:20.680Z,1001.8
2018-11-07T09:44:23.100Z,1001.8
2018-11-07T09:45:25.124Z,1001.8
2018-11-07T09:46:27.149Z,1001.8
2018-11-07T09:47:29.557Z,1001.8
2018-11-07T09:48:31.549Z,1001.8
2018-11-07T09:49:33.569Z,1001.7
2018-11-07T09:50:35.585Z,1001.8
2018-11-07T09:51:38.006Z,1001.8
2018-11-07T09:52:40.016Z,1001.8
2018-11-07T09:53:42.451Z,1001.8
2018-11-07T09:54:44.463Z,1001.8
2018-11-07T09:55:46.773Z,1001.8
2018-11-07T09:56:48.791Z,1001.8
2018-11-07T09:57:51.121Z,1001.8
2018-11-07T09:58:53.142Z,1001.7
2018-11-07T09:59:55.453Z,1001.8
2018-11-07T10:00:57.486Z,1001.8
2018-11-07T10:01:59.512Z,1001.8
2018-11-07T10:03:01.533Z,1001.8
2018-11-07T10:04:03.953Z,1001.8
2018-11-07T10:05:05.972Z,1001.8
2018-11-07T10:06:07.997Z,1001.7
2018-11-07T10:07:10.019Z,1001.8
2018-11-07T10:08:12.036Z,1001.8
2018-11-07T10:09:14.068Z,1001.8
2018-11-07T10:10:16.091Z,1001.9
2018-11-07T10:11:18.125Z,1001.9
2018-11-07T10:12:20.195Z,1002
2018-11-07T10:13:22.453Z,1002
2018-11-07T10:14:24.869Z,1002
2018-11-07T10:15:26.891Z,1002
2018-11-07T10:16:28.917Z,1002
2018-11-07T10:17:30.954Z,1002
2018-11-07T10:18:33.657Z,1002
2018-11-07T10:19:35.735Z,1002
2018-11-07T10:20:38.081Z,1002
2018-11-07T10:21:40.509Z,1002
2018-11-07T10:22:42.533Z,1002
2018-11-07T10:23:44.555Z,1002
2018-11-07T10:24:46.976Z,1002
2018-11-07T10:25:48.992Z,1002
2018-11-07T10:26:51.215Z,1002
2018-11-07T10:27:53.599Z,1002
2018-11-07T10:28:55.425Z,1002
2018-11-07T10:29:58.243Z,1002
2018-11-07T10:30:59.867Z,1002
2018-11-07T10:32:01.892Z,1001.9
2018-11-07T10:33:04.909Z,1001.9
2018-11-07T10:34:06.947Z,1001.9
2018-11-07T10:35:08.976Z,1001.9
2018-11-07T10:36:11.002Z,1001.9
2018-11-07T10:37:13.043Z,1001.9
2018-11-07T10:38:15.094Z,1001.9
2018-11-07T10:39:17.785Z,1002
2018-11-07T10:40:19.818Z,1002
2018-11-07T10:41:22.227Z,1002
2018-11-07T10:42:24.267Z,1002
2018-11-07T10:43:26.303Z,1002
2018-11-07T10:44:28.443Z,1002
2018-11-07T10:45:30.366Z,1002
2018-11-07T10:46:32.682Z,1002.1
2018-11-07T10:47:34.716Z,1002.1
2018-11-07T10:48:37.410Z,1002.1
2018-11-07T10:49:39.833Z,1002.2
2018-11-07T10:50:41.855Z,1002.2
2018-11-07T10:51:43.952Z,1002.2
2018-11-07T10:52:46.268Z,1002.2
2018-11-07T10:53:48.306Z,1002.2
2018-11-07T10:54:50.345Z,1002.2
2018-11-07T10:55:52.666Z,1002.3
2018-11-07T10:56:54.705Z,1002.2
2018-11-07T10:57:56.729Z,1002.2
2018-11-07T10:58:58.774Z,1002.2
2018-11-07T11:00:00.814Z,1002.2
2018-11-07T11:01:02.835Z,1002.3
2018-11-07T11:02:04.865Z,1002.2
2018-11-07T11:03:06.914Z,1002.2
2018-11-07T11:04:08.935Z,1002.3
2018-11-07T11:05:11.067Z,1002.3
2018-11-07T11:06:13.013Z,1002.3
2018-11-07T11:07:15.042Z,1002.3
2018-11-07T11:08:17.071Z,1002.3
2018-11-07T11:09:19.393Z,1002.3
2018-11-07T11:10:21.807Z,1002.3
2018-11-07T11:11:23.916Z,1002.3
2018-11-07T11:12:25.892Z,1002.4
2018-11-07T11:13:27.919Z,1002.4
2018-11-07T11:14:29.968Z,1002.4
2018-11-07T11:15:32.279Z,1002.4
2018-11-07T11:16:34.313Z,1002.4
2018-11-07T11:17:36.626Z,1002.3
2018-11-07T11:18:38.662Z,1002.3
2018-11-07T11:19:40.715Z,1002.3
2018-11-07T11:20:42.723Z,1002.3
2018-11-07T11:21:44.762Z,1002.3
2018-11-07T11:22:46.786Z,1002.4
2018-11-07T11:23:48.854Z,1002.4
2018-11-07T11:24:51.467Z,1002.4
2018-11-07T11:25:53.540Z,1002.4
2018-11-07T11:26:56.148Z,1002.5
2018-11-07T11:27:58.185Z,1002.5
2018-11-07T11:29:00.210Z,1002.5
2018-11-07T11:30:03.112Z,1002.4
2018-11-07T11:31:05.539Z,1002.5
2018-11-07T11:32:07.565Z,1002.4
2018-11-07T11:33:09.888Z,1002.5
2018-11-07T11:34:12.104Z,1002.4
2018-11-07T11:35:14.734Z,1002.5
2018-11-07T11:36:16.612Z,1002.5
2018-11-07T11:37:18.919Z,1002.5
2018-11-07T11:38:20.954Z,1002.6
2018-11-07T11:39:23.370Z,1002.5
2018-11-07T11:40:25.392Z,1002.6
2018-11-07T11:41:27.418Z,1002.5
2018-11-07T11:42:29.449Z,1002.6
2018-11-07T11:43:31.475Z,1002.5
2018-11-07T11:44:33.511Z,1002.5
2018-11-07T11:45:35.548Z,1002.5
2018-11-07T11:46:37.574Z,1002.5
2018-11-07T11:47:39.613Z,1002.5
2018-11-07T11:48:42.026Z,1002.5
2018-11-07T11:49:44.439Z,1002.5
2018-11-07T11:50:46.753Z,1002.5
2018-11-07T11:51:48.786Z,1002.6
2018-11-07T11:52:50.805Z,1002.6
2018-11-07T11:53:52.834Z,1002.6
2018-11-07T11:54:54.869Z,1002.6
2018-11-07T11:55:56.888Z,1002.6
2018-11-07T11:56:58.933Z,1002.6
2018-11-07T11:58:01.250Z,1002.7
2018-11-07T11:59:03.389Z,1002.7
2018-11-07T12:00:06.197Z,1002.7
2018-11-07T12:01:09.913Z,1002.6
2018-11-07T12:02:11.966Z,1002.6
2018-11-07T12:03:13.958Z,1002.6
2018-11-07T12:04:16.283Z,1002.6
2018-11-07T12:05:18.650Z,1002.5
2018-11-07T12:06:21.002Z,1002.5
2018-11-07T12:07:23.001Z,1002.5
2018-11-07T12:08:25.453Z,1002.6
2018-11-07T12:09:27.438Z,1002.6
2018-11-07T12:10:29.839Z,1002.5
2018-11-07T12:11:31.870Z,1002.6
2018-11-07T12:12:33.901Z,1002.5
2018-11-07T12:13:35.919Z,1002.5
2018-11-07T12:14:37.953Z,1002.5
2018-11-07T12:15:39.992Z,1002.6
2018-11-07T12:16:43.231Z,1002.5
2018-11-07T12:17:45.594Z,1002.5
2018-11-07T12:18:47.583Z,1002.5
2018-11-07T12:19:49.604Z,1002.5
2018-11-07T12:20:51.649Z,1002.5
2018-11-07T12:21:53.673Z,1002.5
2018-11-07T12:22:55.984Z,1002.5
2018-11-07T12:23:58.006Z,1002.5
2018-11-07T12:25:00.325Z,1002.4
2018-11-07T12:26:02.348Z,1002.4
2018-11-07T12:27:04.379Z,1002.4
2018-11-07T12:28:06.416Z,1002.4
2018-11-07T12:29:08.435Z,1002.4
2018-11-07T12:30:10.477Z,1002.4
2018-11-07T12:31:12.946Z,1002.4
2018-11-07T12:32:15.263Z,1002.4
2018-11-07T12:33:17.292Z,1002.5
2018-11-07T12:34:19.612Z,1002.4
2018-11-07T12:35:21.647Z,1002.4
2018-11-07T12:36:24.328Z,1002.4
2018-11-07T12:37:26.292Z,1002.5
2018-11-07T12:38:28.309Z,1002.5
2018-11-07T12:39:30.337Z,1002.4
2018-11-07T12:40:32.373Z,1002.4
2018-11-07T12:41:34.406Z,1002.4
2018-11-07T12:42:36.478Z,1002.4
2018-11-07T12:43:38.462Z,1002.4
2018-11-07T12:44:40.489Z,1002.4
2018-11-07T12:45:42.803Z,1002.4
2018-11-07T12:46:45.125Z,1002.4
2018-11-07T12:47:47.155Z,1002.4
2018-11-07T12:48:49.189Z,1002.4
2018-11-07T12:49:51.392Z,1002.4
2018-11-07T12:50:53.244Z,1002.5
2018-11-07T12:51:55.564Z,1002.5
2018-11-07T12:52:57.590Z,1002.5
2018-11-07T12:53:59.631Z,1002.4
2018-11-07T12:55:01.933Z,1002.4
2018-11-07T12:56:03.969Z,1002.4
2018-11-07T12:57:06.017Z,1002.4
2018-11-07T12:58:08.561Z,1002.4
2018-11-07T12:59:11.649Z,1002.4
2018-11-07T13:00:13.960Z,1002.5
2018-11-07T13:01:15.996Z,1002.4
2018-11-07T13:02:18.309Z,1002.4
2018-11-07T13:03:20.743Z,1002.5